This is the latest recevied weather packets stored in our database for station/object DC4AT. If no packets are shown the sender has not sent any weather packets the latest 10 day(s).
| Time | Temp. | Humidity | Pressure | Rain* | Wind** | Luminosity | Snow |
|---|---|---|---|---|---|---|---|
| 1787896055 | 19.44° C | 85% | 1007.5 hPa | 0 mm | - | 35 W/m² | - |
| 1787895455 | 19.44° C | 85% | 1007.4 hPa | 0 mm | - | 28 W/m² | - |
| 1787894855 | 19.44° C | 85% | 1007.7 hPa | 0 mm | - | 21 W/m² | - |
| 1787894255 | 19.44° C | 85% | 1007.9 hPa | 0 mm | - | 16 W/m² | - |
| 1787893655 | 19.44° C | 85% | 1008.1 hPa | 0 mm | - | 11 W/m² | - |
| 1787893055 | 19.44° C | 84% | 1008 hPa | 0 mm | - | 5 W/m² | - |
| 1787892455 | 19.44° C | 84% | 1008 hPa | 0 mm | - | 0 W/m² | - |
| 1787891855 | 19.44° C | 84% | 1007.8 hPa | 0 mm | - | 0 W/m² | - |
| 1787891255 | 19.44° C | 84% | 1008.4 hPa | 0 mm | - | 0 W/m² | - |
| 1787890655 | 20° C | 83% | 1008.4 hPa | 0 mm | - | 0 W/m² | - |
| 1787890055 | 20° C | 82% | 1008.3 hPa | 0 mm | - | 0 W/m² | - |
| 1787889455 | 20.56° C | 81% | 1008.1 hPa | 0 mm | - | 0 W/m² | - |
| 1787888855 | 20.56° C | 80% | 1008.3 hPa | 0 mm | - | 0 W/m² | - |
| 1787888255 | 20.56° C | 80% | 1008.5 hPa | 0 mm | - | 0 W/m² | - |
| 1787887655 | 20.56° C | 80% | 1008.7 hPa | 0 mm | - | 0 W/m² | - |
| 1787887055 | 20.56° C | 80% | 1008.8 hPa | 0 mm | - | 0 W/m² | - |
| 1787886455 | 20.56° C | 81% | 1009 hPa | 0 mm | - | 0 W/m² | - |
| 1787885855 | 19.44° C | 83% | 1009.3 hPa | 0 mm | - | 0 W/m² | - |
| 1787885255 | 19.44° C | 83% | 1009.8 hPa | 0 mm | - | 0 W/m² | - |
| 1787884655 | 19.44° C | 83% | 1010.1 hPa | 0 mm | - | 0 W/m² | - |
| 1787884055 | 19.44° C | 83% | 1010.1 hPa | 0 mm | - | 0 W/m² | - |
| 1787883455 | 20° C | 82% | 1010 hPa | 0 mm | - | 0 W/m² | - |
| 1787882855 | 20° C | 80% | 1010.1 hPa | 0 mm | - | 0 W/m² | - |
| 1787882255 | 21.11° C | 77% | 1010.1 hPa | 0 mm | - | 0 W/m² | - |
| 1787881655 | 21.11° C | 74% | 1009.4 hPa | 0 mm | - | 0 W/m² | - |
* Rain latest hour (hover to see other rain measurements)
** Current wind speed in m/s (hover to see current wind gust speed)